sensor_id;sensor_type;location;lat;lon;timestamp;P1;durP1;ratioP1;P2;durP2;ratioP2
22531;SDS011;11432;46.924;7.114;2023-02-28T00:00:47;5.10;;;3.17;;
22531;SDS011;11432;46.924;7.114;2023-02-28T00:03:13;4.85;;;3.33;;
22531;SDS011;11432;46.924;7.114;2023-02-28T00:05:39;5.07;;;2.90;;
22531;SDS011;11432;46.924;7.114;2023-02-28T00:08:04;5.18;;;2.55;;
22531;SDS011;11432;46.924;7.114;2023-02-28T00:10:30;4.60;;;3.05;;
22531;SDS011;11432;46.924;7.114;2023-02-28T00:13:01;3.72;;;2.80;;
22531;SDS011;11432;46.924;7.114;2023-02-28T00:15:29;5.75;;;2.70;;
22531;SDS011;11432;46.924;7.114;2023-02-28T00:17:55;5.90;;;3.10;;
22531;SDS011;11432;46.924;7.114;2023-02-28T00:20:20;5.90;;;3.28;;
22531;SDS011;11432;46.924;7.114;2023-02-28T00:22:47;4.45;;;3.25;;
22531;SDS011;11432;46.924;7.114;2023-02-28T00:25:16;5.45;;;3.15;;
22531;SDS011;11432;46.924;7.114;2023-02-28T00:27:44;4.20;;;3.30;;
22531;SDS011;11432;46.924;7.114;2023-02-28T00:30:11;4.70;;;3.20;;
22531;SDS011;11432;46.924;7.114;2023-02-28T00:32:39;5.95;;;3.05;;
22531;SDS011;11432;46.924;7.114;2023-02-28T00:35:05;3.58;;;2.60;;
22531;SDS011;11432;46.924;7.114;2023-02-28T00:37:32;4.15;;;2.97;;
22531;SDS011;11432;46.924;7.114;2023-02-28T00:39:57;4.22;;;3.10;;
22531;SDS011;11432;46.924;7.114;2023-02-28T00:42:23;5.85;;;2.97;;
22531;SDS011;11432;46.924;7.114;2023-02-28T00:44:49;5.88;;;2.92;;
22531;SDS011;11432;46.924;7.114;2023-02-28T00:47:14;5.30;;;2.90;;
22531;SDS011;11432;46.924;7.114;2023-02-28T00:49:40;5.10;;;3.25;;
22531;SDS011;11432;46.924;7.114;2023-02-28T00:52:06;4.40;;;3.28;;
22531;SDS011;11432;46.924;7.114;2023-02-28T00:54:32;4.25;;;2.80;;
22531;SDS011;11432;46.924;7.114;2023-02-28T00:56:57;5.20;;;3.15;;
22531;SDS011;11432;46.924;7.114;2023-02-28T00:59:23;5.85;;;2.95;;
22531;SDS011;11432;46.924;7.114;2023-02-28T01:01:49;5.07;;;3.08;;
22531;SDS011;11432;46.924;7.114;2023-02-28T01:04:14;5.13;;;3.30;;
22531;SDS011;11432;46.924;7.114;2023-02-28T01:06:40;5.15;;;3.13;;
22531;SDS011;11432;46.924;7.114;2023-02-28T01:09:07;5.95;;;3.22;;
22531;SDS011;11432;46.924;7.114;2023-02-28T01:11:33;4.88;;;3.15;;
22531;SDS011;11432;46.924;7.114;2023-02-28T01:13:59;4.50;;;3.30;;
22531;SDS011;11432;46.924;7.114;2023-02-28T01:16:26;5.32;;;3.90;;
22531;SDS011;11432;46.924;7.114;2023-02-28T01:18:51;10.05;;;4.60;;
22531;SDS011;11432;46.924;7.114;2023-02-28T01:21:18;6.88;;;3.75;;
22531;SDS011;11432;46.924;7.114;2023-02-28T01:23:45;6.53;;;3.38;;
22531;SDS011;11432;46.924;7.114;2023-02-28T01:28:44;7.18;;;3.67;;
22531;SDS011;11432;46.924;7.114;2023-02-28T01:31:10;5.20;;;3.13;;
22531;SDS011;11432;46.924;7.114;2023-02-28T01:33:36;6.68;;;3.60;;
22531;SDS011;11432;46.924;7.114;2023-02-28T01:36:09;5.70;;;3.40;;
22531;SDS011;11432;46.924;7.114;2023-02-28T01:38:40;5.93;;;3.28;;
22531;SDS011;11432;46.924;7.114;2023-02-28T01:41:06;6.47;;;3.47;;
22531;SDS011;11432;46.924;7.114;2023-02-28T01:46:08;7.75;;;3.40;;
22531;SDS011;11432;46.924;7.114;2023-02-28T01:48:35;4.50;;;3.25;;
22531;SDS011;11432;46.924;7.114;2023-02-28T01:51:18;4.45;;;3.13;;
22531;SDS011;11432;46.924;7.114;2023-02-28T01:53:56;4.88;;;3.17;;
22531;SDS011;11432;46.924;7.114;2023-02-28T01:56:27;4.38;;;2.80;;
22531;SDS011;11432;46.924;7.114;2023-02-28T01:58:57;5.85;;;3.35;;
22531;SDS011;11432;46.924;7.114;2023-02-28T02:01:24;3.80;;;2.78;;
22531;SDS011;11432;46.924;7.114;2023-02-28T02:03:53;5.65;;;3.63;;
22531;SDS011;11432;46.924;7.114;2023-02-28T02:06:22;6.55;;;3.17;;
22531;SDS011;11432;46.924;7.114;2023-02-28T02:08:49;5.18;;;3.40;;
22531;SDS011;11432;46.924;7.114;2023-02-28T02:11:17;5.28;;;3.25;;
22531;SDS011;11432;46.924;7.114;2023-02-28T02:27:20;5.50;;;3.15;;
22531;SDS011;11432;46.924;7.114;2023-02-28T02:30:00;5.85;;;3.63;;
22531;SDS011;11432;46.924;7.114;2023-02-28T02:35:28;4.97;;;3.63;;
22531;SDS011;11432;46.924;7.114;2023-02-28T02:41:08;5.32;;;2.80;;
22531;SDS011;11432;46.924;7.114;2023-02-28T02:43:42;3.97;;;3.20;;
22531;SDS011;11432;46.924;7.114;2023-02-28T02:46:24;4.03;;;3.33;;
22531;SDS011;11432;46.924;7.114;2023-02-28T02:48:55;4.57;;;3.55;;
22531;SDS011;11432;46.924;7.114;2023-02-28T02:51:24;4.27;;;3.57;;
22531;SDS011;11432;46.924;7.114;2023-02-28T02:53:52;5.78;;;3.45;;
22531;SDS011;11432;46.924;7.114;2023-02-28T02:56:27;5.55;;;3.45;;
22531;SDS011;11432;46.924;7.114;2023-02-28T02:58:57;5.13;;;3.50;;
22531;SDS011;11432;46.924;7.114;2023-02-28T03:01:27;4.63;;;3.55;;
22531;SDS011;11432;46.924;7.114;2023-02-28T03:04:06;5.30;;;3.72;;
22531;SDS011;11432;46.924;7.114;2023-02-28T03:06:34;6.03;;;3.47;;
22531;SDS011;11432;46.924;7.114;2023-02-28T03:09:00;4.85;;;3.80;;
22531;SDS011;11432;46.924;7.114;2023-02-28T03:11:26;6.80;;;3.50;;
22531;SDS011;11432;46.924;7.114;2023-02-28T03:14:04;4.40;;;3.65;;
22531;SDS011;11432;46.924;7.114;2023-02-28T03:19:19;4.85;;;3.50;;
22531;SDS011;11432;46.924;7.114;2023-02-28T03:24:22;5.80;;;3.80;;
22531;SDS011;11432;46.924;7.114;2023-02-28T03:27:02;4.93;;;3.15;;
22531;SDS011;11432;46.924;7.114;2023-02-28T03:29:34;4.72;;;3.72;;
22531;SDS011;11432;46.924;7.114;2023-02-28T03:32:06;4.43;;;3.25;;
22531;SDS011;11432;46.924;7.114;2023-02-28T03:34:42;6.97;;;3.47;;
22531;SDS011;11432;46.924;7.114;2023-02-28T03:37:15;5.72;;;3.60;;
22531;SDS011;11432;46.924;7.114;2023-02-28T03:39:49;5.25;;;3.50;;
22531;SDS011;11432;46.924;7.114;2023-02-28T03:42:23;5.20;;;3.65;;
22531;SDS011;11432;46.924;7.114;2023-02-28T03:44:53;4.45;;;3.08;;
22531;SDS011;11432;46.924;7.114;2023-02-28T03:47:24;5.75;;;3.53;;
22531;SDS011;11432;46.924;7.114;2023-02-28T03:52:46;5.22;;;3.40;;
22531;SDS011;11432;46.924;7.114;2023-02-28T03:55:20;6.10;;;3.70;;
22531;SDS011;11432;46.924;7.114;2023-02-28T03:58:03;5.45;;;3.65;;
22531;SDS011;11432;46.924;7.114;2023-02-28T04:00:40;4.18;;;3.45;;
22531;SDS011;11432;46.924;7.114;2023-02-28T04:03:24;4.50;;;3.45;;
22531;SDS011;11432;46.924;7.114;2023-02-28T04:05:53;4.47;;;3.83;;
22531;SDS011;11432;46.924;7.114;2023-02-28T04:08:20;6.05;;;4.18;;
22531;SDS011;11432;46.924;7.114;2023-02-28T04:10:48;5.35;;;3.55;;
22531;SDS011;11432;46.924;7.114;2023-02-28T04:13:35;5.85;;;3.55;;
22531;SDS011;11432;46.924;7.114;2023-02-28T04:16:01;5.85;;;3.83;;
22531;SDS011;11432;46.924;7.114;2023-02-28T04:18:26;4.50;;;3.45;;
22531;SDS011;11432;46.924;7.114;2023-02-28T04:20:52;6.15;;;4.20;;
22531;SDS011;11432;46.924;7.114;2023-02-28T04:23:18;5.32;;;4.07;;
22531;SDS011;11432;46.924;7.114;2023-02-28T04:25:43;5.72;;;4.32;;
22531;SDS011;11432;46.924;7.114;2023-02-28T04:28:09;5.07;;;4.28;;
22531;SDS011;11432;46.924;7.114;2023-02-28T04:30:34;4.85;;;3.85;;
22531;SDS011;11432;46.924;7.114;2023-02-28T04:33:00;6.10;;;3.55;;
22531;SDS011;11432;46.924;7.114;2023-02-28T04:35:26;7.60;;;3.90;;
22531;SDS011;11432;46.924;7.114;2023-02-28T04:37:52;4.45;;;3.65;;
22531;SDS011;11432;46.924;7.114;2023-02-28T04:40:17;5.75;;;3.47;;
22531;SDS011;11432;46.924;7.114;2023-02-28T04:42:43;5.47;;;3.63;;
22531;SDS011;11432;46.924;7.114;2023-02-28T04:45:08;6.00;;;3.70;;
22531;SDS011;11432;46.924;7.114;2023-02-28T04:47:35;5.30;;;4.18;;
22531;SDS011;11432;46.924;7.114;2023-02-28T04:50:01;5.93;;;4.35;;
22531;SDS011;11432;46.924;7.114;2023-02-28T04:52:28;5.57;;;3.83;;
22531;SDS011;11432;46.924;7.114;2023-02-28T04:54:53;5.78;;;4.00;;
22531;SDS011;11432;46.924;7.114;2023-02-28T04:57:19;7.13;;;4.50;;
22531;SDS011;11432;46.924;7.114;2023-02-28T04:59:45;6.07;;;4.28;;
22531;SDS011;11432;46.924;7.114;2023-02-28T05:02:10;5.20;;;3.88;;
22531;SDS011;11432;46.924;7.114;2023-02-28T05:04:36;6.15;;;4.03;;
22531;SDS011;11432;46.924;7.114;2023-02-28T05:07:02;5.53;;;4.30;;
22531;SDS011;11432;46.924;7.114;2023-02-28T05:09:28;5.22;;;4.20;;
22531;SDS011;11432;46.924;7.114;2023-02-28T05:11:54;7.65;;;4.30;;
22531;SDS011;11432;46.924;7.114;2023-02-28T05:14:20;6.18;;;4.07;;
22531;SDS011;11432;46.924;7.114;2023-02-28T05:16:46;12.73;;;6.43;;
22531;SDS011;11432;46.924;7.114;2023-02-28T05:19:12;10.65;;;5.30;;
22531;SDS011;11432;46.924;7.114;2023-02-28T05:21:38;6.35;;;4.70;;
22531;SDS011;11432;46.924;7.114;2023-02-28T05:24:09;6.00;;;4.63;;
22531;SDS011;11432;46.924;7.114;2023-02-28T05:26:38;6.22;;;4.70;;
22531;SDS011;11432;46.924;7.114;2023-02-28T05:29:05;5.10;;;4.43;;
22531;SDS011;11432;46.924;7.114;2023-02-28T05:31:31;6.57;;;4.93;;
22531;SDS011;11432;46.924;7.114;2023-02-28T05:33:57;5.55;;;4.63;;
22531;SDS011;11432;46.924;7.114;2023-02-28T05:36:23;8.13;;;4.50;;
22531;SDS011;11432;46.924;7.114;2023-02-28T05:38:49;6.47;;;4.50;;
22531;SDS011;11432;46.924;7.114;2023-02-28T05:41:15;6.07;;;4.57;;
22531;SDS011;11432;46.924;7.114;2023-02-28T05:43:42;6.30;;;4.50;;
22531;SDS011;11432;46.924;7.114;2023-02-28T05:46:08;6.18;;;4.63;;
22531;SDS011;11432;46.924;7.114;2023-02-28T05:48:35;7.13;;;4.63;;
22531;SDS011;11432;46.924;7.114;2023-02-28T05:51:02;5.50;;;4.63;;
22531;SDS011;11432;46.924;7.114;2023-02-28T05:53:29;9.63;;;5.25;;
22531;SDS011;11432;46.924;7.114;2023-02-28T05:55:56;8.60;;;5.18;;
22531;SDS011;11432;46.924;7.114;2023-02-28T05:58:22;8.52;;;5.00;;
22531;SDS011;11432;46.924;7.114;2023-02-28T06:00:48;6.95;;;4.68;;
22531;SDS011;11432;46.924;7.114;2023-02-28T06:03:14;6.30;;;4.55;;
22531;SDS011;11432;46.924;7.114;2023-02-28T06:05:39;6.00;;;4.80;;
22531;SDS011;11432;46.924;7.114;2023-02-28T06:08:05;6.88;;;5.10;;
22531;SDS011;11432;46.924;7.114;2023-02-28T06:10:32;7.68;;;4.85;;
22531;SDS011;11432;46.924;7.114;2023-02-28T06:13:02;5.88;;;5.18;;
22531;SDS011;11432;46.924;7.114;2023-02-28T06:15:28;5.90;;;4.57;;
22531;SDS011;11432;46.924;7.114;2023-02-28T06:17:54;7.57;;;5.38;;
22531;SDS011;11432;46.924;7.114;2023-02-28T06:20:23;6.18;;;4.82;;
22531;SDS011;11432;46.924;7.114;2023-02-28T06:22:53;6.32;;;4.85;;
22531;SDS011;11432;46.924;7.114;2023-02-28T06:25:21;6.80;;;5.22;;
22531;SDS011;11432;46.924;7.114;2023-02-28T06:27:46;8.40;;;4.80;;
22531;SDS011;11432;46.924;7.114;2023-02-28T06:30:13;6.68;;;4.57;;
22531;SDS011;11432;46.924;7.114;2023-02-28T06:32:39;7.32;;;4.78;;
22531;SDS011;11432;46.924;7.114;2023-02-28T06:35:04;8.38;;;4.68;;
22531;SDS011;11432;46.924;7.114;2023-02-28T06:37:31;6.55;;;4.97;;
22531;SDS011;11432;46.924;7.114;2023-02-28T06:39:57;5.60;;;5.00;;
22531;SDS011;11432;46.924;7.114;2023-02-28T06:42:23;7.60;;;4.60;;
22531;SDS011;11432;46.924;7.114;2023-02-28T06:44:54;6.72;;;5.65;;
22531;SDS011;11432;46.924;7.114;2023-02-28T06:47:20;10.73;;;5.28;;
22531;SDS011;11432;46.924;7.114;2023-02-28T06:49:46;7.13;;;4.82;;
22531;SDS011;11432;46.924;7.114;2023-02-28T06:52:12;5.82;;;4.53;;
22531;SDS011;11432;46.924;7.114;2023-02-28T06:54:37;6.93;;;4.93;;
22531;SDS011;11432;46.924;7.114;2023-02-28T06:57:03;6.85;;;5.22;;
22531;SDS011;11432;46.924;7.114;2023-02-28T06:59:29;8.32;;;5.30;;
22531;SDS011;11432;46.924;7.114;2023-02-28T07:01:55;7.35;;;4.78;;
22531;SDS011;11432;46.924;7.114;2023-02-28T07:04:21;7.75;;;5.20;;
22531;SDS011;11432;46.924;7.114;2023-02-28T07:06:46;8.13;;;4.80;;
22531;SDS011;11432;46.924;7.114;2023-02-28T07:09:12;10.55;;;6.20;;
22531;SDS011;11432;46.924;7.114;2023-02-28T07:11:39;8.63;;;5.20;;
22531;SDS011;11432;46.924;7.114;2023-02-28T07:14:05;6.75;;;4.90;;
22531;SDS011;11432;46.924;7.114;2023-02-28T07:16:31;8.35;;;5.13;;
22531;SDS011;11432;46.924;7.114;2023-02-28T07:18:57;6.88;;;4.70;;
22531;SDS011;11432;46.924;7.114;2023-02-28T07:21:23;9.77;;;5.40;;
22531;SDS011;11432;46.924;7.114;2023-02-28T07:23:48;7.22;;;5.20;;
22531;SDS011;11432;46.924;7.114;2023-02-28T07:26:15;9.52;;;5.25;;
22531;SDS011;11432;46.924;7.114;2023-02-28T07:28:43;7.00;;;5.45;;
22531;SDS011;11432;46.924;7.114;2023-02-28T07:31:11;8.32;;;5.50;;
22531;SDS011;11432;46.924;7.114;2023-02-28T07:33:39;8.10;;;4.82;;
22531;SDS011;11432;46.924;7.114;2023-02-28T07:36:06;7.22;;;5.32;;
22531;SDS011;11432;46.924;7.114;2023-02-28T07:38:40;6.90;;;5.18;;
22531;SDS011;11432;46.924;7.114;2023-02-28T07:41:10;8.07;;;5.32;;
22531;SDS011;11432;46.924;7.114;2023-02-28T07:43:36;6.20;;;5.28;;
22531;SDS011;11432;46.924;7.114;2023-02-28T07:46:02;8.45;;;5.65;;
22531;SDS011;11432;46.924;7.114;2023-02-28T07:48:29;6.57;;;5.70;;
22531;SDS011;11432;46.924;7.114;2023-02-28T07:50:55;6.18;;;5.13;;
22531;SDS011;11432;46.924;7.114;2023-02-28T07:53:21;8.02;;;5.18;;
22531;SDS011;11432;46.924;7.114;2023-02-28T07:55:47;7.35;;;5.25;;
22531;SDS011;11432;46.924;7.114;2023-02-28T07:58:13;9.15;;;6.88;;
22531;SDS011;11432;46.924;7.114;2023-02-28T08:00:38;11.75;;;7.90;;
22531;SDS011;11432;46.924;7.114;2023-02-28T08:03:04;11.45;;;7.75;;
22531;SDS011;11432;46.924;7.114;2023-02-28T08:05:29;10.00;;;7.10;;
22531;SDS011;11432;46.924;7.114;2023-02-28T08:07:55;9.35;;;6.88;;
22531;SDS011;11432;46.924;7.114;2023-02-28T08:10:22;7.38;;;5.72;;
22531;SDS011;11432;46.924;7.114;2023-02-28T08:12:48;6.50;;;5.20;;
22531;SDS011;11432;46.924;7.114;2023-02-28T08:15:14;8.55;;;6.43;;
22531;SDS011;11432;46.924;7.114;2023-02-28T08:17:40;7.68;;;5.70;;
22531;SDS011;11432;46.924;7.114;2023-02-28T08:20:05;7.28;;;5.70;;
22531;SDS011;11432;46.924;7.114;2023-02-28T08:22:35;7.68;;;5.75;;
22531;SDS011;11432;46.924;7.114;2023-02-28T08:25:01;8.93;;;6.10;;
22531;SDS011;11432;46.924;7.114;2023-02-28T08:27:26;8.77;;;6.00;;
22531;SDS011;11432;46.924;7.114;2023-02-28T08:29:52;8.18;;;6.05;;
22531;SDS011;11432;46.924;7.114;2023-02-28T08:32:17;7.85;;;5.45;;
22531;SDS011;11432;46.924;7.114;2023-02-28T08:34:43;7.55;;;5.80;;
22531;SDS011;11432;46.924;7.114;2023-02-28T08:37:08;7.85;;;5.55;;
22531;SDS011;11432;46.924;7.114;2023-02-28T08:39:35;9.38;;;5.82;;
22531;SDS011;11432;46.924;7.114;2023-02-28T08:42:01;8.00;;;5.80;;
22531;SDS011;11432;46.924;7.114;2023-02-28T08:44:27;8.63;;;5.63;;
22531;SDS011;11432;46.924;7.114;2023-02-28T08:46:53;7.93;;;5.72;;
22531;SDS011;11432;46.924;7.114;2023-02-28T08:49:18;7.75;;;5.57;;
22531;SDS011;11432;46.924;7.114;2023-02-28T08:51:44;8.10;;;5.45;;
22531;SDS011;11432;46.924;7.114;2023-02-28T08:54:10;5.95;;;4.65;;
22531;SDS011;11432;46.924;7.114;2023-02-28T08:56:40;6.47;;;5.50;;
22531;SDS011;11432;46.924;7.114;2023-02-28T08:59:08;9.27;;;5.93;;
22531;SDS011;11432;46.924;7.114;2023-02-28T09:01:34;9.45;;;6.05;;
22531;SDS011;11432;46.924;7.114;2023-02-28T09:04:01;7.90;;;5.82;;
22531;SDS011;11432;46.924;7.114;2023-02-28T09:06:27;10.27;;;5.07;;
22531;SDS011;11432;46.924;7.114;2023-02-28T09:08:55;11.90;;;5.88;;
22531;SDS011;11432;46.924;7.114;2023-02-28T09:11:23;6.82;;;5.45;;
22531;SDS011;11432;46.924;7.114;2023-02-28T09:13:49;7.95;;;4.95;;
22531;SDS011;11432;46.924;7.114;2023-02-28T09:16:15;6.70;;;5.40;;
22531;SDS011;11432;46.924;7.114;2023-02-28T09:18:41;8.77;;;5.82;;
22531;SDS011;11432;46.924;7.114;2023-02-28T09:21:09;6.60;;;4.85;;
22531;SDS011;11432;46.924;7.114;2023-02-28T09:23:39;9.00;;;5.90;;
22531;SDS011;11432;46.924;7.114;2023-02-28T09:26:05;7.47;;;5.65;;
22531;SDS011;11432;46.924;7.114;2023-02-28T09:28:31;7.72;;;5.30;;
22531;SDS011;11432;46.924;7.114;2023-02-28T09:30:57;8.55;;;6.22;;
22531;SDS011;11432;46.924;7.114;2023-02-28T09:33:24;9.00;;;5.20;;
22531;SDS011;11432;46.924;7.114;2023-02-28T09:35:50;8.93;;;5.85;;
22531;SDS011;11432;46.924;7.114;2023-02-28T09:38:22;9.35;;;5.75;;
22531;SDS011;11432;46.924;7.114;2023-02-28T09:40:59;8.55;;;6.20;;
22531;SDS011;11432;46.924;7.114;2023-02-28T09:43:35;8.00;;;5.85;;
22531;SDS011;11432;46.924;7.114;2023-02-28T09:46:26;9.98;;;5.53;;
22531;SDS011;11432;46.924;7.114;2023-02-28T09:48:52;8.73;;;6.13;;
22531;SDS011;11432;46.924;7.114;2023-02-28T09:53:52;7.07;;;5.55;;
22531;SDS011;11432;46.924;7.114;2023-02-28T09:56:20;11.48;;;6.53;;
22531;SDS011;11432;46.924;7.114;2023-02-28T09:58:59;12.15;;;6.85;;
22531;SDS011;11432;46.924;7.114;2023-02-28T10:05:05;8.82;;;6.30;;
22531;SDS011;11432;46.924;7.114;2023-02-28T10:10:21;8.55;;;6.00;;
22531;SDS011;11432;46.924;7.114;2023-02-28T10:12:53;7.53;;;5.82;;
22531;SDS011;11432;46.924;7.114;2023-02-28T10:15:23;9.00;;;5.78;;
22531;SDS011;11432;46.924;7.114;2023-02-28T10:17:54;7.07;;;5.72;;
22531;SDS011;11432;46.924;7.114;2023-02-28T10:20:25;9.15;;;6.00;;
22531;SDS011;11432;46.924;7.114;2023-02-28T10:23:01;8.27;;;6.00;;
22531;SDS011;11432;46.924;7.114;2023-02-28T10:26:00;7.97;;;6.03;;
22531;SDS011;11432;46.924;7.114;2023-02-28T10:28:30;11.25;;;5.93;;
22531;SDS011;11432;46.924;7.114;2023-02-28T10:30:56;7.68;;;5.90;;
22531;SDS011;11432;46.924;7.114;2023-02-28T10:33:24;8.13;;;5.82;;
22531;SDS011;11432;46.924;7.114;2023-02-28T10:35:59;7.10;;;5.03;;
22531;SDS011;11432;46.924;7.114;2023-02-28T10:38:26;7.80;;;5.90;;
22531;SDS011;11432;46.924;7.114;2023-02-28T10:43:53;7.65;;;5.68;;
22531;SDS011;11432;46.924;7.114;2023-02-28T10:46:44;7.20;;;5.10;;
22531;SDS011;11432;46.924;7.114;2023-02-28T10:49:20;7.32;;;6.03;;
22531;SDS011;11432;46.924;7.114;2023-02-28T10:51:49;7.35;;;5.45;;
22531;SDS011;11432;46.924;7.114;2023-02-28T10:54:28;10.02;;;5.90;;
22531;SDS011;11432;46.924;7.114;2023-02-28T10:59:34;9.68;;;5.15;;
22531;SDS011;11432;46.924;7.114;2023-02-28T11:02:00;7.93;;;6.25;;
22531;SDS011;11432;46.924;7.114;2023-02-28T11:07:01;9.60;;;5.43;;
22531;SDS011;11432;46.924;7.114;2023-02-28T11:09:36;7.60;;;6.15;;
22531;SDS011;11432;46.924;7.114;2023-02-28T11:12:05;9.38;;;6.50;;
22531;SDS011;11432;46.924;7.114;2023-02-28T11:17:13;7.47;;;6.38;;
22531;SDS011;11432;46.924;7.114;2023-02-28T11:19:45;7.90;;;5.72;;
22531;SDS011;11432;46.924;7.114;2023-02-28T11:22:21;8.63;;;6.10;;
22531;SDS011;11432;46.924;7.114;2023-02-28T11:24:50;8.90;;;6.28;;
22531;SDS011;11432;46.924;7.114;2023-02-28T11:29:54;7.55;;;4.90;;
22531;SDS011;11432;46.924;7.114;2023-02-28T11:32:21;8.20;;;6.40;;
22531;SDS011;11432;46.924;7.114;2023-02-28T11:35:02;6.65;;;5.68;;
22531;SDS011;11432;46.924;7.114;2023-02-28T11:37:34;8.73;;;6.45;;
22531;SDS011;11432;46.924;7.114;2023-02-28T11:40:00;8.50;;;6.35;;
22531;SDS011;11432;46.924;7.114;2023-02-28T11:42:41;9.55;;;6.40;;
22531;SDS011;11432;46.924;7.114;2023-02-28T11:51:05;10.90;;;6.68;;
22531;SDS011;11432;46.924;7.114;2023-02-28T12:10:37;8.93;;;6.72;;
22531;SDS011;11432;46.924;7.114;2023-02-28T12:13:21;6.03;;;4.40;;
22531;SDS011;11432;46.924;7.114;2023-02-28T12:16:00;8.27;;;6.38;;
22531;SDS011;11432;46.924;7.114;2023-02-28T12:21:14;4.30;;;2.65;;
22531;SDS011;11432;46.924;7.114;2023-02-28T12:26:59;7.50;;;6.03;;
22531;SDS011;11432;46.924;7.114;2023-02-28T12:29:32;8.13;;;6.25;;
22531;SDS011;11432;46.924;7.114;2023-02-28T12:34:49;9.13;;;6.63;;
22531;SDS011;11432;46.924;7.114;2023-02-28T12:37:56;7.68;;;5.80;;
22531;SDS011;11432;46.924;7.114;2023-02-28T12:42:41;8.65;;;6.45;;
22531;SDS011;11432;46.924;7.114;2023-02-28T12:45:24;8.73;;;6.55;;
22531;SDS011;11432;46.924;7.114;2023-02-28T12:47:57;7.35;;;6.28;;
22531;SDS011;11432;46.924;7.114;2023-02-28T12:58:01;7.90;;;6.10;;
22531;SDS011;11432;46.924;7.114;2023-02-28T13:00:34;9.18;;;6.80;;
22531;SDS011;11432;46.924;7.114;2023-02-28T13:19:39;8.15;;;5.80;;
22531;SDS011;11432;46.924;7.114;2023-02-28T13:25:00;6.85;;;5.05;;
22531;SDS011;11432;46.924;7.114;2023-02-28T13:27:36;8.25;;;6.45;;
22531;SDS011;11432;46.924;7.114;2023-02-28T13:33:27;10.88;;;6.63;;
22531;SDS011;11432;46.924;7.114;2023-02-28T13:36:06;9.68;;;6.80;;
22531;SDS011;11432;46.924;7.114;2023-02-28T13:44:04;10.18;;;6.85;;
22531;SDS011;11432;46.924;7.114;2023-02-28T13:46:33;8.10;;;6.57;;
22531;SDS011;11432;46.924;7.114;2023-02-28T13:51:48;10.38;;;7.10;;
22531;SDS011;11432;46.924;7.114;2023-02-28T13:54:28;9.43;;;5.75;;
22531;SDS011;11432;46.924;7.114;2023-02-28T14:06:18;6.53;;;4.47;;
22531;SDS011;11432;46.924;7.114;2023-02-28T14:11:28;8.02;;;6.47;;
22531;SDS011;11432;46.924;7.114;2023-02-28T14:13:56;8.60;;;6.25;;
22531;SDS011;11432;46.924;7.114;2023-02-28T14:16:23;8.65;;;6.50;;
22531;SDS011;11432;46.924;7.114;2023-02-28T14:19:01;6.68;;;5.00;;
22531;SDS011;11432;46.924;7.114;2023-02-28T14:21:35;6.43;;;4.47;;
22531;SDS011;11432;46.924;7.114;2023-02-28T14:35:20;8.43;;;6.82;;
22531;SDS011;11432;46.924;7.114;2023-02-28T14:37:50;8.05;;;6.65;;
22531;SDS011;11432;46.924;7.114;2023-02-28T14:42:55;8.35;;;7.03;;
22531;SDS011;11432;46.924;7.114;2023-02-28T14:45:22;7.88;;;5.97;;
22531;SDS011;11432;46.924;7.114;2023-02-28T14:47:49;8.73;;;6.50;;
22531;SDS011;11432;46.924;7.114;2023-02-28T14:50:32;11.73;;;6.88;;
22531;SDS011;11432;46.924;7.114;2023-02-28T14:53:00;7.70;;;6.15;;
22531;SDS011;11432;46.924;7.114;2023-02-28T14:55:46;10.23;;;6.55;;
22531;SDS011;11432;46.924;7.114;2023-02-28T14:58:20;6.75;;;4.80;;
22531;SDS011;11432;46.924;7.114;2023-02-28T15:00:49;8.90;;;6.55;;
22531;SDS011;11432;46.924;7.114;2023-02-28T15:03:20;8.77;;;5.47;;
22531;SDS011;11432;46.924;7.114;2023-02-28T15:05:54;8.38;;;6.50;;
22531;SDS011;11432;46.924;7.114;2023-02-28T15:08:21;8.52;;;6.43;;
22531;SDS011;11432;46.924;7.114;2023-02-28T15:13:18;5.63;;;3.95;;
22531;SDS011;11432;46.924;7.114;2023-02-28T15:15:57;8.35;;;6.78;;
22531;SDS011;11432;46.924;7.114;2023-02-28T15:18:31;8.63;;;6.65;;
22531;SDS011;11432;46.924;7.114;2023-02-28T15:21:20;8.40;;;7.05;;
22531;SDS011;11432;46.924;7.114;2023-02-28T15:23:50;7.22;;;5.28;;
22531;SDS011;11432;46.924;7.114;2023-02-28T15:26:23;9.05;;;6.80;;
22531;SDS011;11432;46.924;7.114;2023-02-28T15:28:57;9.73;;;6.50;;
22531;SDS011;11432;46.924;7.114;2023-02-28T15:31:34;7.15;;;5.45;;
22531;SDS011;11432;46.924;7.114;2023-02-28T15:34:06;7.70;;;5.75;;
22531;SDS011;11432;46.924;7.114;2023-02-28T15:36:42;7.95;;;6.03;;
22531;SDS011;11432;46.924;7.114;2023-02-28T15:39:21;9.98;;;7.80;;
22531;SDS011;11432;46.924;7.114;2023-02-28T15:41:49;9.27;;;6.50;;
22531;SDS011;11432;46.924;7.114;2023-02-28T15:44:16;10.77;;;5.93;;
22531;SDS011;11432;46.924;7.114;2023-02-28T15:47:01;2.08;;;1.30;;
22531;SDS011;11432;46.924;7.114;2023-02-28T15:52:41;8.07;;;5.35;;
22531;SDS011;11432;46.924;7.114;2023-02-28T15:57:51;7.93;;;6.57;;
22531;SDS011;11432;46.924;7.114;2023-02-28T16:00:20;7.88;;;6.45;;
22531;SDS011;11432;46.924;7.114;2023-02-28T16:02:48;6.95;;;5.47;;
22531;SDS011;11432;46.924;7.114;2023-02-28T16:05:18;8.32;;;6.43;;
22531;SDS011;11432;46.924;7.114;2023-02-28T16:07:53;9.45;;;6.22;;
22531;SDS011;11432;46.924;7.114;2023-02-28T16:10:27;9.32;;;7.03;;
22531;SDS011;11432;46.924;7.114;2023-02-28T16:12:54;7.88;;;6.63;;
22531;SDS011;11432;46.924;7.114;2023-02-28T16:15:22;10.70;;;7.30;;
22531;SDS011;11432;46.924;7.114;2023-02-28T16:17:51;10.00;;;7.43;;
22531;SDS011;11432;46.924;7.114;2023-02-28T16:20:18;9.15;;;6.72;;
22531;SDS011;11432;46.924;7.114;2023-02-28T16:22:46;10.65;;;7.05;;
22531;SDS011;11432;46.924;7.114;2023-02-28T16:25:23;9.52;;;7.25;;
22531;SDS011;11432;46.924;7.114;2023-02-28T16:27:58;9.30;;;6.55;;
22531;SDS011;11432;46.924;7.114;2023-02-28T16:30:26;10.82;;;7.00;;
22531;SDS011;11432;46.924;7.114;2023-02-28T16:32:54;9.30;;;7.10;;
22531;SDS011;11432;46.924;7.114;2023-02-28T16:35:21;10.35;;;7.30;;
22531;SDS011;11432;46.924;7.114;2023-02-28T16:37:47;7.72;;;6.35;;
22531;SDS011;11432;46.924;7.114;2023-02-28T16:40:13;8.85;;;7.13;;
22531;SDS011;11432;46.924;7.114;2023-02-28T16:42:45;9.38;;;7.35;;
22531;SDS011;11432;46.924;7.114;2023-02-28T16:45:16;6.13;;;4.47;;
22531;SDS011;11432;46.924;7.114;2023-02-28T16:47:46;9.52;;;6.35;;
22531;SDS011;11432;46.924;7.114;2023-02-28T16:50:13;9.45;;;7.30;;
22531;SDS011;11432;46.924;7.114;2023-02-28T16:52:44;9.25;;;7.90;;
22531;SDS011;11432;46.924;7.114;2023-02-28T16:55:10;8.95;;;6.80;;
22531;SDS011;11432;46.924;7.114;2023-02-28T16:57:36;8.68;;;6.43;;
22531;SDS011;11432;46.924;7.114;2023-02-28T17:00:02;8.70;;;6.65;;
22531;SDS011;11432;46.924;7.114;2023-02-28T17:02:29;10.20;;;7.20;;
22531;SDS011;11432;46.924;7.114;2023-02-28T17:04:55;11.93;;;7.85;;
22531;SDS011;11432;46.924;7.114;2023-02-28T17:07:20;9.55;;;7.03;;
22531;SDS011;11432;46.924;7.114;2023-02-28T17:09:46;9.82;;;7.10;;
22531;SDS011;11432;46.924;7.114;2023-02-28T17:12:12;9.35;;;7.05;;
22531;SDS011;11432;46.924;7.114;2023-02-28T17:14:37;9.90;;;7.40;;
22531;SDS011;11432;46.924;7.114;2023-02-28T17:17:07;9.13;;;7.00;;
22531;SDS011;11432;46.924;7.114;2023-02-28T17:19:34;9.40;;;7.22;;
22531;SDS011;11432;46.924;7.114;2023-02-28T17:22:01;9.60;;;7.32;;
22531;SDS011;11432;46.924;7.114;2023-02-28T17:24:28;10.77;;;7.47;;
22531;SDS011;11432;46.924;7.114;2023-02-28T17:26:53;9.00;;;7.03;;
22531;SDS011;11432;46.924;7.114;2023-02-28T17:29:20;8.45;;;6.57;;
22531;SDS011;11432;46.924;7.114;2023-02-28T17:31:46;9.75;;;7.05;;
22531;SDS011;11432;46.924;7.114;2023-02-28T17:34:12;9.65;;;7.68;;
22531;SDS011;11432;46.924;7.114;2023-02-28T17:36:43;9.55;;;7.13;;
22531;SDS011;11432;46.924;7.114;2023-02-28T17:39:11;8.70;;;6.55;;